sensor_id;sensor_type;location;lat;lon;timestamp;pressure;altitude;pressure_sealevel;temperature;humidity
74895;BME280;63447;49.446;8.666;2024-01-30T00:01:50;101714.16;;;3.48;91.15
74895;BME280;63447;49.446;8.666;2024-01-30T00:04:18;101717.97;;;3.47;91.78
74895;BME280;63447;49.446;8.666;2024-01-30T00:06:46;101713.50;;;3.41;91.51
74895;BME280;63447;49.446;8.666;2024-01-30T00:09:11;101720.28;;;3.38;91.50
74895;BME280;63447;49.446;8.666;2024-01-30T00:11:37;101704.22;;;3.20;91.41
74895;BME280;63447;49.446;8.666;2024-01-30T00:14:07;101698.63;;;3.10;94.59
74895;BME280;63447;49.446;8.666;2024-01-30T00:16:35;101717.03;;;3.20;93.48
74895;BME280;63447;49.446;8.666;2024-01-30T00:19:00;101716.44;;;3.18;94.04
74895;BME280;63447;49.446;8.666;2024-01-30T00:21:27;101711.00;;;3.18;94.15
74895;BME280;63447;49.446;8.666;2024-01-30T00:23:55;101704.38;;;3.14;93.08
74895;BME280;63447;49.446;8.666;2024-01-30T00:26:22;101714.28;;;3.20;93.41
74895;BME280;63447;49.446;8.666;2024-01-30T00:28:50;101691.09;;;3.00;94.18
74895;BME280;63447;49.446;8.666;2024-01-30T00:31:16;101682.25;;;2.93;94.02
74895;BME280;63447;49.446;8.666;2024-01-30T00:33:41;101710.16;;;3.17;95.11
74895;BME280;63447;49.446;8.666;2024-01-30T00:36:08;101704.72;;;3.17;94.74
74895;BME280;63447;49.446;8.666;2024-01-30T00:38:37;101684.09;;;3.04;93.24
74895;BME280;63447;49.446;8.666;2024-01-30T00:41:07;101706.03;;;3.15;94.88
74895;BME280;63447;49.446;8.666;2024-01-30T00:43:35;101715.44;;;3.24;95.18
74895;BME280;63447;49.446;8.666;2024-01-30T00:46:04;101701.97;;;3.17;94.19
74895;BME280;63447;49.446;8.666;2024-01-30T00:48:31;101702.19;;;3.11;94.88
74895;BME280;63447;49.446;8.666;2024-01-30T00:50:59;101710.50;;;3.21;94.86
74895;BME280;63447;49.446;8.666;2024-01-30T00:53:24;101716.69;;;3.16;93.29
74895;BME280;63447;49.446;8.666;2024-01-30T00:55:50;101715.28;;;3.14;94.67
74895;BME280;63447;49.446;8.666;2024-01-30T00:58:17;101707.06;;;3.09;95.00
74895;BME280;63447;49.446;8.666;2024-01-30T01:00:46;101701.44;;;2.98;93.86
74895;BME280;63447;49.446;8.666;2024-01-30T01:03:14;101706.16;;;3.03;94.37
74895;BME280;63447;49.446;8.666;2024-01-30T01:05:42;101693.75;;;2.95;93.21
74895;BME280;63447;49.446;8.666;2024-01-30T01:08:15;101706.63;;;3.00;94.26
74895;BME280;63447;49.446;8.666;2024-01-30T01:10:40;101695.91;;;2.93;93.64
74895;BME280;63447;49.446;8.666;2024-01-30T01:13:05;101716.81;;;3.04;94.82
74895;BME280;63447;49.446;8.666;2024-01-30T01:15:31;101727.47;;;3.06;93.90
74895;BME280;63447;49.446;8.666;2024-01-30T01:17:56;101730.78;;;3.08;94.38
74895;BME280;63447;49.446;8.666;2024-01-30T01:20:21;101704.22;;;2.87;93.33
74895;BME280;63447;49.446;8.666;2024-01-30T01:22:47;101716.28;;;2.91;95.11
74895;BME280;63447;49.446;8.666;2024-01-30T01:25:17;101719.28;;;2.89;94.64
74895;BME280;63447;49.446;8.666;2024-01-30T01:27:45;101716.28;;;2.91;95.52
74895;BME280;63447;49.446;8.666;2024-01-30T01:30:16;101722.09;;;2.94;94.99
74895;BME280;63447;49.446;8.666;2024-01-30T01:32:52;101706.72;;;2.88;95.17
74895;BME280;63447;49.446;8.666;2024-01-30T01:35:22;101685.25;;;2.75;94.17
74895;BME280;63447;49.446;8.666;2024-01-30T01:37:52;101700.97;;;2.85;94.80
74895;BME280;63447;49.446;8.666;2024-01-30T01:40:22;101680.53;;;2.70;94.03
74895;BME280;63447;49.446;8.666;2024-01-30T01:42:52;101708.94;;;2.91;95.38
74895;BME280;63447;49.446;8.666;2024-01-30T01:45:19;101688.47;;;2.89;96.90
74895;BME280;63447;49.446;8.666;2024-01-30T01:47:49;101681.88;;;2.85;95.93
74895;BME280;63447;49.446;8.666;2024-01-30T01:50:16;101713.41;;;2.97;95.97
74895;BME280;63447;49.446;8.666;2024-01-30T01:52:47;101692.19;;;2.83;96.20
74895;BME280;63447;49.446;8.666;2024-01-30T01:55:13;101667.25;;;2.74;96.31
74895;BME280;63447;49.446;8.666;2024-01-30T01:57:42;101696.34;;;2.85;96.07
74895;BME280;63447;49.446;8.666;2024-01-30T02:00:10;101691.19;;;2.89;97.52
74895;BME280;63447;49.446;8.666;2024-01-30T02:02:37;101694.94;;;2.83;95.74
74895;BME280;63447;49.446;8.666;2024-01-30T02:05:06;101701.19;;;2.83;99.57
74895;BME280;63447;49.446;8.666;2024-01-30T02:07:34;101688.91;;;2.81;100.00
74895;BME280;63447;49.446;8.666;2024-01-30T02:09:59;101696.81;;;2.65;100.00
74895;BME280;63447;49.446;8.666;2024-01-30T02:12:25;101697.91;;;2.81;100.00
74895;BME280;63447;49.446;8.666;2024-01-30T02:14:50;101686.91;;;2.76;100.00
74895;BME280;63447;49.446;8.666;2024-01-30T02:17:16;101691.88;;;2.79;100.00
74895;BME280;63447;49.446;8.666;2024-01-30T02:19:41;101700.44;;;2.88;100.00
74895;BME280;63447;49.446;8.666;2024-01-30T02:22:09;101697.16;;;2.86;100.00
74895;BME280;63447;49.446;8.666;2024-01-30T02:24:37;101700.75;;;2.91;100.00
74895;BME280;63447;49.446;8.666;2024-01-30T02:27:03;101702.91;;;2.89;100.00
74895;BME280;63447;49.446;8.666;2024-01-30T02:29:30;101692.44;;;2.81;100.00
74895;BME280;63447;49.446;8.666;2024-01-30T02:31:58;101694.44;;;2.86;100.00
74895;BME280;63447;49.446;8.666;2024-01-30T02:34:26;101670.31;;;2.78;100.00
74895;BME280;63447;49.446;8.666;2024-01-30T02:36:52;101696.38;;;2.90;100.00
74895;BME280;63447;49.446;8.666;2024-01-30T02:39:22;101675.44;;;2.74;100.00
74895;BME280;63447;49.446;8.666;2024-01-30T02:41:47;101697.88;;;2.98;100.00
74895;BME280;63447;49.446;8.666;2024-01-30T02:44:12;101704.16;;;2.98;98.84
74895;BME280;63447;49.446;8.666;2024-01-30T02:46:40;101699.63;;;3.04;99.53
74895;BME280;63447;49.446;8.666;2024-01-30T02:49:05;101683.53;;;2.86;99.20
74895;BME280;63447;49.446;8.666;2024-01-30T02:51:31;101709.69;;;3.03;99.84
74895;BME280;63447;49.446;8.666;2024-01-30T02:53:56;101702.19;;;2.94;99.00
74895;BME280;63447;49.446;8.666;2024-01-30T02:56:21;101693.03;;;2.83;100.00
74895;BME280;63447;49.446;8.666;2024-01-30T02:58:47;101698.88;;;2.92;100.00
74895;BME280;63447;49.446;8.666;2024-01-30T03:01:12;101701.59;;;2.92;100.00
74895;BME280;63447;49.446;8.666;2024-01-30T03:03:37;101697.78;;;2.93;100.00
74895;BME280;63447;49.446;8.666;2024-01-30T03:06:03;101676.72;;;2.88;100.00
74895;BME280;63447;49.446;8.666;2024-01-30T03:08:28;101697.81;;;3.10;100.00
74895;BME280;63447;49.446;8.666;2024-01-30T03:10:54;101674.66;;;2.95;100.00
74895;BME280;63447;49.446;8.666;2024-01-30T03:13:19;101680.28;;;3.05;100.00
74895;BME280;63447;49.446;8.666;2024-01-30T03:15:51;101673.69;;;3.01;99.78
74895;BME280;63447;49.446;8.666;2024-01-30T03:18:19;101665.50;;;3.01;100.00
74895;BME280;63447;49.446;8.666;2024-01-30T03:20:44;101702.31;;;3.21;99.83
74895;BME280;63447;49.446;8.666;2024-01-30T03:23:09;101699.84;;;3.19;100.00
74895;BME280;63447;49.446;8.666;2024-01-30T03:25:39;101699.00;;;3.19;100.00
74895;BME280;63447;49.446;8.666;2024-01-30T03:28:09;101709.00;;;3.30;100.00
74895;BME280;63447;49.446;8.666;2024-01-30T03:30:37;101692.81;;;3.23;100.00
74895;BME280;63447;49.446;8.666;2024-01-30T03:33:02;101699.16;;;3.29;99.66
74895;BME280;63447;49.446;8.666;2024-01-30T03:35:28;101685.38;;;3.19;99.32
74895;BME280;63447;49.446;8.666;2024-01-30T03:37:53;101702.47;;;3.31;97.90
74895;BME280;63447;49.446;8.666;2024-01-30T03:40:21;101701.75;;;3.40;100.00
74895;BME280;63447;49.446;8.666;2024-01-30T03:42:47;101673.88;;;3.33;99.78
74895;BME280;63447;49.446;8.666;2024-01-30T03:45:14;101692.47;;;3.58;99.54
74895;BME280;63447;49.446;8.666;2024-01-30T03:47:39;101699.94;;;3.68;99.28
74895;BME280;63447;49.446;8.666;2024-01-30T03:50:10;101697.28;;;3.73;98.82
74895;BME280;63447;49.446;8.666;2024-01-30T03:52:35;101703.94;;;4.04;94.88
74895;BME280;63447;49.446;8.666;2024-01-30T03:55:06;101706.63;;;3.99;96.03
74895;BME280;63447;49.446;8.666;2024-01-30T03:57:31;101703.72;;;3.84;95.00
74895;BME280;63447;49.446;8.666;2024-01-30T03:59:57;101709.94;;;3.79;97.03
74895;BME280;63447;49.446;8.666;2024-01-30T04:02:22;101703.19;;;4.08;97.74
74895;BME280;63447;49.446;8.666;2024-01-30T04:04:47;101705.44;;;4.17;97.06
74895;BME280;63447;49.446;8.666;2024-01-30T04:07:15;101697.78;;;4.14;96.71
74895;BME280;63447;49.446;8.666;2024-01-30T04:09:45;101698.50;;;4.31;97.33
74895;BME280;63447;49.446;8.666;2024-01-30T04:12:10;101681.91;;;4.37;96.41
74895;BME280;63447;49.446;8.666;2024-01-30T04:14:37;101703.31;;;4.77;93.97
74895;BME280;63447;49.446;8.666;2024-01-30T04:17:03;101696.94;;;4.67;93.86
74895;BME280;63447;49.446;8.666;2024-01-30T04:19:36;101663.38;;;4.44;93.89
74895;BME280;63447;49.446;8.666;2024-01-30T04:22:02;101694.75;;;4.69;93.34
74895;BME280;63447;49.446;8.666;2024-01-30T04:24:36;101684.66;;;4.42;93.48
74895;BME280;63447;49.446;8.666;2024-01-30T04:27:02;101705.13;;;4.67;93.77
74895;BME280;63447;49.446;8.666;2024-01-30T04:29:30;101705.47;;;4.75;93.76
74895;BME280;63447;49.446;8.666;2024-01-30T04:31:55;101696.94;;;4.67;92.53
74895;BME280;63447;49.446;8.666;2024-01-30T04:34:20;101696.28;;;4.87;92.91
74895;BME280;63447;49.446;8.666;2024-01-30T04:36:46;101708.31;;;4.86;92.26
74895;BME280;63447;49.446;8.666;2024-01-30T04:39:11;101707.53;;;4.90;92.10
74895;BME280;63447;49.446;8.666;2024-01-30T04:41:37;101698.56;;;5.00;93.46
74895;BME280;63447;49.446;8.666;2024-01-30T04:44:05;101678.06;;;5.02;92.57
74895;BME280;63447;49.446;8.666;2024-01-30T04:46:35;101697.91;;;5.25;91.06
74895;BME280;63447;49.446;8.666;2024-01-30T04:49:03;101678.66;;;5.09;90.71
74895;BME280;63447;49.446;8.666;2024-01-30T04:51:31;101685.78;;;5.10;89.99
74895;BME280;63447;49.446;8.666;2024-01-30T04:53:58;101697.03;;;5.14;90.15
74895;BME280;63447;49.446;8.666;2024-01-30T04:56:26;101714.53;;;5.13;90.07
74895;BME280;63447;49.446;8.666;2024-01-30T04:58:51;101714.09;;;5.31;90.44
74895;BME280;63447;49.446;8.666;2024-01-30T05:01:17;101712.41;;;5.25;90.07
74895;BME280;63447;49.446;8.666;2024-01-30T05:03:42;101709.53;;;5.05;90.25
74895;BME280;63447;49.446;8.666;2024-01-30T05:06:08;101726.81;;;5.10;91.10
74895;BME280;63447;49.446;8.666;2024-01-30T05:08:33;101725.72;;;5.11;90.25
74895;BME280;63447;49.446;8.666;2024-01-30T05:11:05;101699.41;;;5.05;89.41
74895;BME280;63447;49.446;8.666;2024-01-30T05:13:33;101724.97;;;5.21;90.71
74895;BME280;63447;49.446;8.666;2024-01-30T05:16:02;101724.34;;;5.09;88.76
74895;BME280;63447;49.446;8.666;2024-01-30T05:18:28;101727.81;;;4.99;90.35
74895;BME280;63447;49.446;8.666;2024-01-30T05:20:53;101727.75;;;4.89;90.91
74895;BME280;63447;49.446;8.666;2024-01-30T05:23:19;101736.41;;;4.81;90.45
74895;BME280;63447;49.446;8.666;2024-01-30T05:25:44;101739.72;;;4.83;91.52
74895;BME280;63447;49.446;8.666;2024-01-30T05:28:09;101735.22;;;4.67;89.72
74895;BME280;63447;49.446;8.666;2024-01-30T05:30:35;101732.19;;;4.68;90.03
74895;BME280;63447;49.446;8.666;2024-01-30T05:33:00;101729.13;;;4.60;92.20
74895;BME280;63447;49.446;8.666;2024-01-30T05:35:25;101735.31;;;4.50;92.07
74895;BME280;63447;49.446;8.666;2024-01-30T05:37:50;101735.09;;;4.57;93.33
74895;BME280;63447;49.446;8.666;2024-01-30T05:40:18;101733.13;;;4.52;93.05
74895;BME280;63447;49.446;8.666;2024-01-30T05:42:44;101737.78;;;4.52;93.24
74895;BME280;63447;49.446;8.666;2024-01-30T05:45:09;101715.34;;;4.50;93.03
74895;BME280;63447;49.446;8.666;2024-01-30T05:47:34;101734.22;;;4.51;91.87
74895;BME280;63447;49.446;8.666;2024-01-30T05:50:00;101712.88;;;4.48;93.95
74895;BME280;63447;49.446;8.666;2024-01-30T05:52:25;101719.63;;;4.67;93.36
74895;BME280;63447;49.446;8.666;2024-01-30T05:54:53;101738.59;;;5.11;90.71
74895;BME280;63447;49.446;8.666;2024-01-30T05:57:18;101725.44;;;5.08;88.64
74895;BME280;63447;49.446;8.666;2024-01-30T05:59:44;101740.19;;;5.07;89.79
74895;BME280;63447;49.446;8.666;2024-01-30T06:02:13;101737.19;;;5.08;90.54
74895;BME280;63447;49.446;8.666;2024-01-30T06:04:38;101740.41;;;5.37;89.29
74895;BME280;63447;49.446;8.666;2024-01-30T06:07:06;101737.59;;;5.27;88.62
74895;BME280;63447;49.446;8.666;2024-01-30T06:09:31;101731.28;;;5.27;89.00
74895;BME280;63447;49.446;8.666;2024-01-30T06:11:57;101742.75;;;5.19;88.48
74895;BME280;63447;49.446;8.666;2024-01-30T06:14:22;101736.16;;;5.15;88.01
74895;BME280;63447;49.446;8.666;2024-01-30T06:16:48;101715.72;;;4.90;88.24
74895;BME280;63447;49.446;8.666;2024-01-30T06:19:13;101739.31;;;5.01;89.83
74895;BME280;63447;49.446;8.666;2024-01-30T06:21:38;101737.97;;;4.72;87.96
74895;BME280;63447;49.446;8.666;2024-01-30T06:24:04;101737.63;;;4.63;89.51
74895;BME280;63447;49.446;8.666;2024-01-30T06:26:32;101727.78;;;4.62;89.86
74895;BME280;63447;49.446;8.666;2024-01-30T06:28:57;101743.06;;;4.58;89.09
74895;BME280;63447;49.446;8.666;2024-01-30T06:31:22;101740.44;;;4.73;89.56
74895;BME280;63447;49.446;8.666;2024-01-30T06:33:49;101734.09;;;4.68;88.88
74895;BME280;63447;49.446;8.666;2024-01-30T06:36:19;101730.53;;;4.62;89.91
74895;BME280;63447;49.446;8.666;2024-01-30T06:38:46;101738.78;;;4.72;89.24
74895;BME280;63447;49.446;8.666;2024-01-30T06:41:12;101741.28;;;4.74;88.91
74895;BME280;63447;49.446;8.666;2024-01-30T06:43:37;101731.16;;;4.74;89.42
74895;BME280;63447;49.446;8.666;2024-01-30T06:46:02;101739.97;;;4.82;89.16
74895;BME280;63447;49.446;8.666;2024-01-30T06:48:28;101739.28;;;4.96;88.05
74895;BME280;63447;49.446;8.666;2024-01-30T06:50:53;101736.84;;;5.00;87.55
74895;BME280;63447;49.446;8.666;2024-01-30T06:53:19;101737.41;;;5.02;87.41
74895;BME280;63447;49.446;8.666;2024-01-30T06:55:46;101748.81;;;5.26;87.10
74895;BME280;63447;49.446;8.666;2024-01-30T06:58:12;101718.97;;;5.24;84.98
74895;BME280;63447;49.446;8.666;2024-01-30T07:00:37;101751.63;;;5.36;86.29
74895;BME280;63447;49.446;8.666;2024-01-30T07:03:03;101744.94;;;5.22;87.34
74895;BME280;63447;49.446;8.666;2024-01-30T07:05:28;101742.28;;;5.32;86.08
74895;BME280;63447;49.446;8.666;2024-01-30T07:07:56;101741.09;;;5.18;86.15
74895;BME280;63447;49.446;8.666;2024-01-30T07:10:21;101738.53;;;5.06;87.34
74895;BME280;63447;49.446;8.666;2024-01-30T07:12:47;101737.25;;;5.14;87.02
74895;BME280;63447;49.446;8.666;2024-01-30T07:15:12;101725.63;;;5.01;87.03
74895;BME280;63447;49.446;8.666;2024-01-30T07:17:44;101746.31;;;5.24;86.31
74895;BME280;63447;49.446;8.666;2024-01-30T07:20:09;101741.19;;;5.33;86.00
74895;BME280;63447;49.446;8.666;2024-01-30T07:22:35;101741.53;;;5.41;85.13
74895;BME280;63447;49.446;8.666;2024-01-30T07:25:01;101749.66;;;5.31;85.23
74895;BME280;63447;49.446;8.666;2024-01-30T07:27:26;101750.72;;;5.25;85.99
74895;BME280;63447;49.446;8.666;2024-01-30T07:29:51;101755.34;;;5.20;85.94
74895;BME280;63447;49.446;8.666;2024-01-30T07:32:17;101745.75;;;5.17;85.38
74895;BME280;63447;49.446;8.666;2024-01-30T07:34:43;101742.00;;;4.96;86.20
74895;BME280;63447;49.446;8.666;2024-01-30T07:37:09;101753.69;;;5.19;85.35
74895;BME280;63447;49.446;8.666;2024-01-30T07:39:34;101756.53;;;5.34;84.56
74895;BME280;63447;49.446;8.666;2024-01-30T07:42:00;101752.16;;;5.33;84.27
74895;BME280;63447;49.446;8.666;2024-01-30T07:44:26;101737.94;;;5.36;84.18
74895;BME280;63447;49.446;8.666;2024-01-30T07:46:51;101747.41;;;5.60;83.50
74895;BME280;63447;49.446;8.666;2024-01-30T07:49:16;101721.59;;;5.51;83.50
74895;BME280;63447;49.446;8.666;2024-01-30T07:51:44;101732.59;;;5.56;82.74
74895;BME280;63447;49.446;8.666;2024-01-30T07:54:10;101756.78;;;5.74;82.40
74895;BME280;63447;49.446;8.666;2024-01-30T07:56:35;101750.75;;;5.77;81.52
74895;BME280;63447;49.446;8.666;2024-01-30T07:59:03;101760.19;;;5.92;80.96
74895;BME280;63447;49.446;8.666;2024-01-30T08:01:31;101759.09;;;5.98;80.88
74895;BME280;63447;49.446;8.666;2024-01-30T08:03:59;101739.94;;;5.93;79.34
74895;BME280;63447;49.446;8.666;2024-01-30T08:06:24;101754.53;;;6.13;79.68
74895;BME280;63447;49.446;8.666;2024-01-30T08:08:52;101767.72;;;6.22;79.43
74895;BME280;63447;49.446;8.666;2024-01-30T08:11:22;101748.25;;;6.23;79.16
74895;BME280;63447;49.446;8.666;2024-01-30T08:13:55;101759.25;;;6.38;78.38
74895;BME280;63447;49.446;8.666;2024-01-30T08:16:20;101783.47;;;6.77;76.68
74895;BME280;63447;49.446;8.666;2024-01-30T08:18:46;101771.13;;;6.74;77.05
74895;BME280;63447;49.446;8.666;2024-01-30T08:21:11;101789.53;;;6.94;76.84
74895;BME280;63447;49.446;8.666;2024-01-30T08:23:38;101719.25;;;6.53;75.92
74895;BME280;63447;49.446;8.666;2024-01-30T08:26:04;101773.34;;;6.93;75.32
74895;BME280;63447;49.446;8.666;2024-01-30T08:28:30;101797.78;;;7.14;74.34
74895;BME280;63447;49.446;8.666;2024-01-30T08:30:55;101782.69;;;7.12;74.59
74895;BME280;63447;49.446;8.666;2024-01-30T08:33:20;101799.69;;;7.19;74.66
74895;BME280;63447;49.446;8.666;2024-01-30T08:35:46;101798.31;;;7.17;73.58
74895;BME280;63447;49.446;8.666;2024-01-30T08:38:11;101801.91;;;7.27;73.93
74895;BME280;63447;49.446;8.666;2024-01-30T08:40:37;101798.59;;;7.35;72.56
74895;BME280;63447;49.446;8.666;2024-01-30T08:43:07;101800.78;;;7.38;73.78
74895;BME280;63447;49.446;8.666;2024-01-30T08:45:35;101775.56;;;7.21;73.38
74895;BME280;63447;49.446;8.666;2024-01-30T08:48:00;101792.56;;;7.38;72.88
74895;BME280;63447;49.446;8.666;2024-01-30T08:50:28;101800.50;;;7.50;73.14
74895;BME280;63447;49.446;8.666;2024-01-30T08:52:56;101802.72;;;7.48;72.87
74895;BME280;63447;49.446;8.666;2024-01-30T08:55:22;101796.13;;;7.39;72.56
74895;BME280;63447;49.446;8.666;2024-01-30T08:57:47;101791.72;;;7.43;72.79
74895;BME280;63447;49.446;8.666;2024-01-30T09:00:13;101772.78;;;7.36;72.55
74895;BME280;63447;49.446;8.666;2024-01-30T09:02:38;101802.13;;;7.61;72.07
74895;BME280;63447;49.446;8.666;2024-01-30T09:05:04;101801.56;;;7.64;72.67
74895;BME280;63447;49.446;8.666;2024-01-30T09:07:31;101787.00;;;7.74;71.65
74895;BME280;63447;49.446;8.666;2024-01-30T09:09:57;101796.06;;;7.74;71.67
74895;BME280;63447;49.446;8.666;2024-01-30T09:12:22;101795.53;;;7.67;71.67
74895;BME280;63447;49.446;8.666;2024-01-30T09:14:48;101796.91;;;7.65;72.00
74895;BME280;63447;49.446;8.666;2024-01-30T09:17:15;101800.47;;;7.70;71.87
74895;BME280;63447;49.446;8.666;2024-01-30T09:19:43;101796.34;;;7.73;71.05
74895;BME280;63447;49.446;8.666;2024-01-30T09:22:09;101800.47;;;7.70;71.30
74895;BME280;63447;49.446;8.666;2024-01-30T09:24:34;101796.91;;;7.65;71.72
74895;BME280;63447;49.446;8.666;2024-01-30T09:27:00;101810.38;;;7.76;70.99
74895;BME280;63447;49.446;8.666;2024-01-30T09:29:27;101811.44;;;7.80;71.37
74895;BME280;63447;49.446;8.666;2024-01-30T09:31:54;101816.09;;;7.85;71.20
74895;BME280;63447;49.446;8.666;2024-01-30T09:34:19;101815.53;;;7.83;71.57
74895;BME280;63447;49.446;8.666;2024-01-30T09:36:47;101819.97;;;7.79;70.81
74895;BME280;63447;49.446;8.666;2024-01-30T09:39:12;101821.84;;;7.94;69.58
74895;BME280;63447;49.446;8.666;2024-01-30T09:41:49;101785.34;;;7.78;69.49
74895;BME280;63447;49.446;8.666;2024-01-30T09:44:17;101794.94;;;7.80;70.33
74895;BME280;63447;49.446;8.666;2024-01-30T09:46:47;101812.50;;;8.00;69.76
74895;BME280;63447;49.446;8.666;2024-01-30T09:49:13;101822.69;;;7.94;70.49
74895;BME280;63447;49.446;8.666;2024-01-30T09:51:39;101783.72;;;7.77;69.55
74895;BME280;63447;49.446;8.666;2024-01-30T09:54:08;101778.44;;;7.80;70.17
74895;BME280;63447;49.446;8.666;2024-01-30T09:56:37;101821.84;;;8.04;69.82
74895;BME280;63447;49.446;8.666;2024-01-30T09:59:02;101812.16;;;8.11;69.60
74895;BME280;63447;49.446;8.666;2024-01-30T10:01:27;101816.28;;;8.14;69.74
74895;BME280;63447;49.446;8.666;2024-01-30T10:03:53;101809.75;;;8.00;70.00
74895;BME280;63447;49.446;8.666;2024-01-30T10:06:19;101826.47;;;8.13;69.31
74895;BME280;63447;49.446;8.666;2024-01-30T10:08:46;101821.72;;;8.34;68.13
74895;BME280;63447;49.446;8.666;2024-01-30T10:11:13;101787.44;;;8.06;68.72
74895;BME280;63447;49.446;8.666;2024-01-30T10:13:41;101812.09;;;8.32;67.33
74895;BME280;63447;49.446;8.666;2024-01-30T10:16:06;101817.31;;;8.38;68.34
74895;BME280;63447;49.446;8.666;2024-01-30T10:18:32;101775.59;;;8.16;68.10
74895;BME280;63447;49.446;8.666;2024-01-30T10:20:58;101821.16;;;8.37;68.55
74895;BME280;63447;49.446;8.666;2024-01-30T10:23:24;101805.19;;;8.44;67.89
74895;BME280;63447;49.446;8.666;2024-01-30T10:25:51;101815.63;;;8.47;69.44
74895;BME280;63447;49.446;8.666;2024-01-30T10:28:17;101815.38;;;8.44;69.27
74895;BME280;63447;49.446;8.666;2024-01-30T10:30:43;101784.91;;;8.30;68.64
74895;BME280;63447;49.446;8.666;2024-01-30T10:33:08;101817.81;;;8.56;67.90
74895;BME280;63447;49.446;8.666;2024-01-30T10:35:38;101777.69;;;8.44;67.98
74895;BME280;63447;49.446;8.666;2024-01-30T10:38:06;101782.28;;;8.59;68.61
74895;BME280;63447;49.446;8.666;2024-01-30T10:40:33;101808.75;;;8.94;66.27
74895;BME280;63447;49.446;8.666;2024-01-30T10:43:01;101811.44;;;9.04;66.10
74895;BME280;63447;49.446;8.666;2024-01-30T10:45:29;101805.94;;;9.04;65.82
74895;BME280;63447;49.446;8.666;2024-01-30T10:47:58;101811.41;;;9.38;64.19
74895;BME280;63447;49.446;8.666;2024-01-30T10:50:25;101804.28;;;9.03;65.99
74895;BME280;63447;49.446;8.666;2024-01-30T10:52:52;101781.94;;;8.71;66.81
74895;BME280;63447;49.446;8.666;2024-01-30T10:55:18;101805.94;;;9.04;66.82
74895;BME280;63447;49.446;8.666;2024-01-30T10:57:43;101800.16;;;9.06;66.00
74895;BME280;63447;49.446;8.666;2024-01-30T11:00:10;101786.91;;;9.08;65.45
74895;BME280;63447;49.446;8.666;2024-01-30T11:02:39;101798.44;;;9.10;65.43
74895;BME280;63447;49.446;8.666;2024-01-30T11:05:05;101778.72;;;8.98;64.53
74895;BME280;63447;49.446;8.666;2024-01-30T11:07:31;101796.28;;;9.07;64.51
74895;BME280;63447;49.446;8.666;2024-01-30T11:12:28;101806.84;;;9.29;64.00
74895;BME280;63447;49.446;8.666;2024-01-30T11:15:05;101813.63;;;9.36;64.43
74895;BME280;63447;49.446;8.666;2024-01-30T11:20:30;101806.50;;;9.35;64.48
74895;BME280;63447;49.446;8.666;2024-01-30T11:22:59;101782.41;;;9.51;62.62
74895;BME280;63447;49.446;8.666;2024-01-30T11:25:27;101777.41;;;9.53;62.68
74895;BME280;63447;49.446;8.666;2024-01-30T11:27:54;101810.22;;;9.78;62.82
74895;BME280;63447;49.446;8.666;2024-01-30T11:33:05;101800.84;;;9.50;63.24
74895;BME280;63447;49.446;8.666;2024-01-30T11:35:32;101807.44;;;9.55;63.43
74895;BME280;63447;49.446;8.666;2024-01-30T11:37:59;101795.44;;;9.69;62.40
74895;BME280;63447;49.446;8.666;2024-01-30T11:40:28;101798.53;;;9.34;64.01
74895;BME280;63447;49.446;8.666;2024-01-30T11:42:55;101795.97;;;9.42;63.98
74895;BME280;63447;49.446;8.666;2024-01-30T11:45:21;101786.53;;;9.19;65.61
74895;BME280;63447;49.446;8.666;2024-01-30T11:47:46;101782.16;;;9.13;65.65
74895;BME280;63447;49.446;8.666;2024-01-30T11:50:12;101773.16;;;9.08;65.60
74895;BME280;63447;49.446;8.666;2024-01-30T11:52:40;101772.88;;;9.09;65.42
74895;BME280;63447;49.446;8.666;2024-01-30T11:55:07;101771.38;;;9.22;64.94
74895;BME280;63447;49.446;8.666;2024-01-30T11:57:33;101776.59;;;9.24;64.44
74895;BME280;63447;49.446;8.666;2024-01-30T12:00:00;101754.22;;;8.96;65.60
74895;BME280;63447;49.446;8.666;2024-01-30T12:02:28;101770.16;;;9.04;65.41
74895;BME280;63447;49.446;8.666;2024-01-30T12:04:53;101761.91;;;8.99;65.66
74895;BME280;63447;49.446;8.666;2024-01-30T12:07:19;101756.97;;;8.96;65.93
74895;BME280;63447;49.446;8.666;2024-01-30T12:09:52;101751.88;;;9.13;65.92
74895;BME280;63447;49.446;8.666;2024-01-30T12:12:18;101756.72;;;9.27;65.56
74895;BME280;63447;49.446;8.666;2024-01-30T12:14:43;101747.94;;;9.25;65.28
74895;BME280;63447;49.446;8.666;2024-01-30T12:17:09;101742.84;;;9.37;65.02
74895;BME280;63447;49.446;8.666;2024-01-30T12:19:34;101736.94;;;9.48;65.03
74895;BME280;63447;49.446;8.666;2024-01-30T12:22:00;101735.13;;;9.63;64.62
74895;BME280;63447;49.446;8.666;2024-01-30T12:24:26;101718.78;;;9.71;64.29
74895;BME280;63447;49.446;8.666;2024-01-30T12:26:52;101731.34;;;9.59;65.19
74895;BME280;63447;49.446;8.666;2024-01-30T12:29:20;101737.91;;;9.63;64.82
74895;BME280;63447;49.446;8.666;2024-01-30T12:31:46;101726.75;;;9.73;64.96
74895;BME280;63447;49.446;8.666;2024-01-30T12:34:14;101728.22;;;9.65;65.24
74895;BME280;63447;49.446;8.666;2024-01-30T12:36:40;101713.91;;;9.63;64.42
74895;BME280;63447;49.446;8.666;2024-01-30T12:39:06;101713.03;;;9.92;63.59
74895;BME280;63447;49.446;8.666;2024-01-30T12:41:31;101731.78;;;10.13;63.01
74895;BME280;63447;49.446;8.666;2024-01-30T12:44:00;101713.94;;;10.30;62.73
74895;BME280;63447;49.446;8.666;2024-01-30T12:46:27;101724.91;;;10.35;62.30
74895;BME280;63447;49.446;8.666;2024-01-30T12:48:53;101706.03;;;10.61;61.36
74895;BME280;63447;49.446;8.666;2024-01-30T12:51:19;101722.47;;;11.03;60.56
74895;BME280;63447;49.446;8.666;2024-01-30T12:53:46;101716.75;;;10.81;61.09
74895;BME280;63447;49.446;8.666;2024-01-30T12:56:13;101733.94;;;11.10;60.68
74895;BME280;63447;49.446;8.666;2024-01-30T12:58:41;101741.41;;;11.42;59.52
74895;BME280;63447;49.446;8.666;2024-01-30T13:01:12;101717.50;;;10.86;60.42
74895;BME280;63447;49.446;8.666;2024-01-30T13:03:38;101742.25;;;10.92;60.91
74895;BME280;63447;49.446;8.666;2024-01-30T13:06:03;101724.00;;;10.77;61.56